Pagrindinis puslapis
METAR-TAF:

METAR-TAF

Oro uostai :

Liuksemburgas, Liuksemburgas

platuma: 49-37N, ilguma: 006-13E, Aukštis: 376 m

Dabartinis oras

Ataskaita buvo paskelbta 31 minutes, ne 04:20 UTC
Vėjas 10 kt iš Pietvakarių
Temperatūra 3°C
Drėgmė 81%
Slėgis 1026 hPa
Matomumas 10 km arba daugiau
nėra debesų žemiau 1500 m ir nėra kamuolinių lietaus debesų

METAR: ELLX 220420Z 23010KT CAVOK 03/00 Q1026 NOSIG

Laikas: 05:51 (04:51 UTC)

Prognozė

Ataskaita buvo paskelbta 5 valandos ir 51 minutes, ne 23:00 UTC
Prognozė galioja nuo 22 metu 00 UTC su 23 metu 06 UTC
Vėjas 10 kt iš Pietvakarių
Matomumas 10 km arba daugiau
nėra debesų žemiau 1500 m ir nėra kamuolinių lietaus debesų
Laikinai
nuo 22 metu 12 UTC su 23 metu 06 UTC
Vėjas 15 kt iš Pietvakarių su gūsio iki 30 kt
Laikinai
nuo 22 metu 20 UTC su 23 metu 06 UTC
Su prošvaistėmis ne aukštis 900 ft
lietus

TAF: ELLX 212300Z 2200/2306 22010KT CAVOK TEMPO 2212/2306 23015G30KT TEMPO 2220/2306 RA BKN009

Orai ataskaitas ir orų prognozės (METAR, TAF).

turimą stotys yra geltonos ir raudonos taškus žemėlapyje.

Perkelti pele per norėdami pamatyti stoties vardą.

Tada spustelėkite, norėdami matyti oro stebėjimo ir prognozės.

Norėdami pakeisti žemėlapį: spustelėkite ant žalios mygtukų su juodo kryžiaus žemyn,; žalią mygtuką su brūkšneliu, jei norite nutolinti; arba žalių rodyklių gretimoms žemėlapius.


METAR-TAF: